sensor_id;sensor_type;location;lat;lon;timestamp;pressure;altitude;pressure_sealevel;temperature;humidity
11329;BME280;5719;42.714;23.732;2023-09-07T00:01:52;94949.88;;;20.45;80.44
11329;BME280;5719;42.714;23.732;2023-09-07T00:04:19;94941.66;;;20.48;79.35
11329;BME280;5719;42.714;23.732;2023-09-07T00:06:48;94940.69;;;20.49;80.28
11329;BME280;5719;42.714;23.732;2023-09-07T00:09:15;94939.03;;;20.48;80.74
11329;BME280;5719;42.714;23.732;2023-09-07T00:11:43;94939.72;;;20.50;80.75
11329;BME280;5719;42.714;23.732;2023-09-07T00:14:10;94939.84;;;20.49;81.39
11329;BME280;5719;42.714;23.732;2023-09-07T00:16:37;94949.41;;;20.50;81.04
11329;BME280;5719;42.714;23.732;2023-09-07T00:19:04;94938.72;;;20.43;81.30
11329;BME280;5719;42.714;23.732;2023-09-07T00:21:31;94940.50;;;20.43;82.51
11329;BME280;5719;42.714;23.732;2023-09-07T00:24:00;94944.44;;;20.39;82.45
11329;BME280;5719;42.714;23.732;2023-09-07T00:26:30;94952.25;;;20.31;82.49
11329;BME280;5719;42.714;23.732;2023-09-07T00:28:57;94949.78;;;20.29;83.47
11329;BME280;5719;42.714;23.732;2023-09-07T00:31:24;94938.91;;;20.24;85.76
11329;BME280;5719;42.714;23.732;2023-09-07T00:33:51;94944.13;;;20.16;87.15
11329;BME280;5719;42.714;23.732;2023-09-07T00:36:18;94937.91;;;20.17;88.46
11329;BME280;5719;42.714;23.732;2023-09-07T00:38:45;94938.88;;;20.16;89.04
11329;BME280;5719;42.714;23.732;2023-09-07T00:41:13;94938.50;;;20.11;89.82
11329;BME280;5719;42.714;23.732;2023-09-07T00:43:40;94929.84;;;20.11;89.76
11329;BME280;5719;42.714;23.732;2023-09-07T00:46:07;94937.53;;;20.12;90.42
11329;BME280;5719;42.714;23.732;2023-09-07T00:48:34;94935.69;;;20.04;91.47
11329;BME280;5719;42.714;23.732;2023-09-07T00:51:01;94930.28;;;20.06;91.21
11329;BME280;5719;42.714;23.732;2023-09-07T00:53:28;94930.28;;;20.06;90.58
11329;BME280;5719;42.714;23.732;2023-09-07T00:55:56;94940.47;;;20.09;91.69
11329;BME280;5719;42.714;23.732;2023-09-07T00:58:26;94939.81;;;20.07;91.71
11329;BME280;5719;42.714;23.732;2023-09-07T01:00:53;94922.41;;;20.06;92.04
11329;BME280;5719;42.714;23.732;2023-09-07T01:03:20;94938.16;;;20.06;92.31
11329;BME280;5719;42.714;23.732;2023-09-07T01:05:56;94924.06;;;20.07;92.02
11329;BME280;5719;42.714;23.732;2023-09-07T01:08:27;94934.25;;;20.10;91.87
11329;BME280;5719;42.714;23.732;2023-09-07T01:10:55;94932.91;;;20.06;92.42
11329;BME280;5719;42.714;23.732;2023-09-07T01:13:22;94927.66;;;20.06;93.04
11329;BME280;5719;42.714;23.732;2023-09-07T01:15:50;94930.28;;;20.06;93.47
11329;BME280;5719;42.714;23.732;2023-09-07T01:18:19;94930.25;;;19.98;94.36
11329;BME280;5719;42.714;23.732;2023-09-07T01:20:47;94934.97;;;19.94;94.89
11329;BME280;5719;42.714;23.732;2023-09-07T01:23:16;94935.13;;;19.93;94.60
11329;BME280;5719;42.714;23.732;2023-09-07T01:25:43;94936.44;;;19.89;95.34
11329;BME280;5719;42.714;23.732;2023-09-07T01:28:11;94940.69;;;19.90;95.14
11329;BME280;5719;42.714;23.732;2023-09-07T01:30:37;94936.59;;;19.87;95.95
11329;BME280;5719;42.714;23.732;2023-09-07T01:33:07;94939.00;;;19.81;95.23
11329;BME280;5719;42.714;23.732;2023-09-07T01:35:34;94940.34;;;19.85;95.91
11329;BME280;5719;42.714;23.732;2023-09-07T01:38:02;94935.09;;;19.85;95.94
11329;BME280;5719;42.714;23.732;2023-09-07T01:40:30;94926.88;;;19.80;95.58
11329;BME280;5719;42.714;23.732;2023-09-07T01:42:57;94934.59;;;19.81;95.20
11329;BME280;5719;42.714;23.732;2023-09-07T01:45:24;94928.53;;;19.81;95.27
11329;BME280;5719;42.714;23.732;2023-09-07T01:47:51;94923.41;;;19.79;95.11
11329;BME280;5719;42.714;23.732;2023-09-07T01:50:18;94924.38;;;19.78;95.57
11329;BME280;5719;42.714;23.732;2023-09-07T01:52:46;94932.09;;;19.80;95.18
11329;BME280;5719;42.714;23.732;2023-09-07T01:55:14;94922.59;;;19.79;95.39
11329;BME280;5719;42.714;23.732;2023-09-07T01:57:42;94927.50;;;19.74;95.82
11329;BME280;5719;42.714;23.732;2023-09-07T02:00:10;94925.53;;;19.76;95.71
11329;BME280;5719;42.714;23.732;2023-09-07T02:02:37;94924.19;;;19.72;96.67
11329;BME280;5719;42.714;23.732;2023-09-07T02:05:05;94918.41;;;19.68;97.25
11329;BME280;5719;42.714;23.732;2023-09-07T02:07:31;94919.56;;;19.66;97.44
11329;BME280;5719;42.714;23.732;2023-09-07T02:09:58;94913.63;;;19.64;98.11
11329;BME280;5719;42.714;23.732;2023-09-07T02:12:25;94919.03;;;19.62;98.78
11329;BME280;5719;42.714;23.732;2023-09-07T02:14:53;94921.16;;;19.58;99.46
11329;BME280;5719;42.714;23.732;2023-09-07T02:17:20;94918.84;;;19.55;99.48
11329;BME280;5719;42.714;23.732;2023-09-07T02:19:47;94921.78;;;19.52;99.78
11329;BME280;5719;42.714;23.732;2023-09-07T02:22:14;94924.16;;;19.46;100.00
11329;BME280;5719;42.714;23.732;2023-09-07T02:24:41;94929.28;;;19.47;100.00
11329;BME280;5719;42.714;23.732;2023-09-07T02:27:08;94928.91;;;19.42;100.00
11329;BME280;5719;42.714;23.732;2023-09-07T02:29:34;94928.91;;;19.42;100.00
11329;BME280;5719;42.714;23.732;2023-09-07T02:32:03;94931.66;;;19.41;99.47
11329;BME280;5719;42.714;23.732;2023-09-07T02:34:30;94923.78;;;19.41;100.00
11329;BME280;5719;42.714;23.732;2023-09-07T02:36:57;94932.75;;;19.38;100.00
11329;BME280;5719;42.714;23.732;2023-09-07T02:39:24;94932.09;;;19.36;100.00
11329;BME280;5719;42.714;23.732;2023-09-07T02:41:51;94929.72;;;19.25;100.00
11329;BME280;5719;42.714;23.732;2023-09-07T02:44:18;94928.75;;;19.26;100.00
11329;BME280;5719;42.714;23.732;2023-09-07T02:46:45;94933.47;;;19.23;100.00
11329;BME280;5719;42.714;23.732;2023-09-07T02:49:14;94935.78;;;19.26;100.00
11329;BME280;5719;42.714;23.732;2023-09-07T02:51:40;94935.34;;;19.30;100.00
11329;BME280;5719;42.714;23.732;2023-09-07T02:54:07;94935.19;;;19.32;100.00
11329;BME280;5719;42.714;23.732;2023-09-07T02:56:34;94939.44;;;19.33;100.00
11329;BME280;5719;42.714;23.732;2023-09-07T02:59:01;94935.69;;;19.35;100.00
11329;BME280;5719;42.714;23.732;2023-09-07T03:01:28;94944.56;;;19.34;100.00
11329;BME280;5719;42.714;23.732;2023-09-07T03:03:55;94939.59;;;19.31;100.00
11329;BME280;5719;42.714;23.732;2023-09-07T03:06:24;94944.84;;;19.31;100.00
11329;BME280;5719;42.714;23.732;2023-09-07T03:08:51;94939.75;;;19.30;100.00
11329;BME280;5719;42.714;23.732;2023-09-07T03:11:18;94943.03;;;19.32;100.00
11329;BME280;5719;42.714;23.732;2023-09-07T03:13:44;94939.44;;;19.33;100.00
11329;BME280;5719;42.714;23.732;2023-09-07T03:16:12;94936.31;;;19.29;100.00
11329;BME280;5719;42.714;23.732;2023-09-07T03:18:39;94945.53;;;19.33;100.00
11329;BME280;5719;42.714;23.732;2023-09-07T03:21:06;94932.56;;;19.32;100.00
11329;BME280;5719;42.714;23.732;2023-09-07T03:23:34;94930.09;;;19.30;100.00
11329;BME280;5719;42.714;23.732;2023-09-07T03:26:01;94931.22;;;19.28;100.00
11329;BME280;5719;42.714;23.732;2023-09-07T03:28:28;94929.06;;;19.23;100.00
11329;BME280;5719;42.714;23.732;2023-09-07T03:30:55;94933.28;;;19.16;100.00
11329;BME280;5719;42.714;23.732;2023-09-07T03:33:22;94929.28;;;19.12;100.00
11329;BME280;5719;42.714;23.732;2023-09-07T03:35:49;94935.50;;;19.11;100.00
11329;BME280;5719;42.714;23.732;2023-09-07T03:38:17;94937.28;;;19.10;100.00
11329;BME280;5719;42.714;23.732;2023-09-07T03:40:45;94950.84;;;19.06;100.00
11329;BME280;5719;42.714;23.732;2023-09-07T03:43:12;94945.47;;;19.07;100.00
11329;BME280;5719;42.714;23.732;2023-09-07T03:45:39;94942.69;;;19.09;100.00
11329;BME280;5719;42.714;23.732;2023-09-07T03:48:06;94945.59;;;19.06;100.00
11329;BME280;5719;42.714;23.732;2023-09-07T03:50:34;94938.03;;;19.03;100.00
11329;BME280;5719;42.714;23.732;2023-09-07T03:53:02;94945.91;;;19.03;100.00
11329;BME280;5719;42.714;23.732;2023-09-07T03:55:29;94950.50;;;19.01;100.00
11329;BME280;5719;42.714;23.732;2023-09-07T03:57:58;94956.31;;;18.95;100.00
11329;BME280;5719;42.714;23.732;2023-09-07T04:00:25;94955.78;;;18.91;100.00
11329;BME280;5719;42.714;23.732;2023-09-07T04:02:51;94957.75;;;18.89;100.00
11329;BME280;5719;42.714;23.732;2023-09-07T04:05:18;94951.97;;;18.86;100.00
11329;BME280;5719;42.714;23.732;2023-09-07T04:07:45;94950.09;;;18.78;100.00
11329;BME280;5719;42.714;23.732;2023-09-07T04:10:12;94958.69;;;18.71;100.00
11329;BME280;5719;42.714;23.732;2023-09-07T04:12:39;94956.91;;;18.71;100.00
11329;BME280;5719;42.714;23.732;2023-09-07T04:15:08;94950.81;;;18.71;100.00
11329;BME280;5719;42.714;23.732;2023-09-07T04:17:37;94959.50;;;18.71;100.00
11329;BME280;5719;42.714;23.732;2023-09-07T04:20:07;94965.41;;;18.73;100.00
11329;BME280;5719;42.714;23.732;2023-09-07T04:22:35;94957.72;;;18.72;100.00
11329;BME280;5719;42.714;23.732;2023-09-07T04:25:02;94956.91;;;18.71;100.00
11329;BME280;5719;42.714;23.732;2023-09-07T04:27:30;94948.66;;;18.66;100.00
11329;BME280;5719;42.714;23.732;2023-09-07T04:29:57;94952.78;;;18.69;100.00
11329;BME280;5719;42.714;23.732;2023-09-07T04:32:25;94951.06;;;18.50;100.00
11329;BME280;5719;42.714;23.732;2023-09-07T04:34:55;94948.41;;;18.59;100.00
11329;BME280;5719;42.714;23.732;2023-09-07T04:37:24;94959.56;;;18.61;100.00
11329;BME280;5719;42.714;23.732;2023-09-07T04:39:52;94959.94;;;18.67;100.00
11329;BME280;5719;42.714;23.732;2023-09-07T04:42:19;94958.38;;;18.74;100.00
11329;BME280;5719;42.714;23.732;2023-09-07T04:44:46;94964.38;;;18.84;100.00
11329;BME280;5719;42.714;23.732;2023-09-07T04:47:13;94962.44;;;18.86;100.00
11329;BME280;5719;42.714;23.732;2023-09-07T04:49:42;94970.41;;;18.94;100.00
11329;BME280;5719;42.714;23.732;2023-09-07T04:52:09;94975.03;;;19.00;100.00
11329;BME280;5719;42.714;23.732;2023-09-07T04:54:36;94969.34;;;19.04;100.00
11329;BME280;5719;42.714;23.732;2023-09-07T04:57:03;94972.84;;;19.13;100.00
11329;BME280;5719;42.714;23.732;2023-09-07T04:59:30;94970.75;;;19.17;100.00
11329;BME280;5719;42.714;23.732;2023-09-07T05:01:59;94967.03;;;19.19;100.00
11329;BME280;5719;42.714;23.732;2023-09-07T05:04:28;94965.16;;;19.29;100.00
11329;BME280;5719;42.714;23.732;2023-09-07T05:06:57;94971.31;;;19.38;100.00
11329;BME280;5719;42.714;23.732;2023-09-07T05:09:24;94965.31;;;19.45;100.00
11329;BME280;5719;42.714;23.732;2023-09-07T05:11:52;94962.22;;;19.50;100.00
11329;BME280;5719;42.714;23.732;2023-09-07T05:14:19;94969.53;;;19.64;100.00
11329;BME280;5719;42.714;23.732;2023-09-07T05:16:46;94968.78;;;19.72;100.00
11329;BME280;5719;42.714;23.732;2023-09-07T05:19:13;94966.97;;;19.72;100.00
11329;BME280;5719;42.714;23.732;2023-09-07T05:21:40;94973.19;;;19.71;100.00
11329;BME280;5719;42.714;23.732;2023-09-07T05:24:08;94968.09;;;19.44;100.00
11329;BME280;5719;42.714;23.732;2023-09-07T05:26:35;94974.50;;;19.32;100.00
11329;BME280;5719;42.714;23.732;2023-09-07T05:29:02;94966.84;;;19.38;100.00
11329;BME280;5719;42.714;23.732;2023-09-07T05:31:29;94967.84;;;19.37;100.00
11329;BME280;5719;42.714;23.732;2023-09-07T05:33:55;94959.16;;;19.37;100.00
11329;BME280;5719;42.714;23.732;2023-09-07T05:36:22;94963.44;;;19.55;100.00
11329;BME280;5719;42.714;23.732;2023-09-07T05:38:49;94969.53;;;19.64;100.00
11329;BME280;5719;42.714;23.732;2023-09-07T05:41:17;94969.41;;;19.66;100.00
11329;BME280;5719;42.714;23.732;2023-09-07T05:43:44;94972.41;;;19.71;100.00
11329;BME280;5719;42.714;23.732;2023-09-07T05:46:11;94976.19;;;19.76;100.00
11329;BME280;5719;42.714;23.732;2023-09-07T05:48:38;94979.41;;;19.88;100.00
11329;BME280;5719;42.714;23.732;2023-09-07T05:51:05;94987.63;;;19.93;100.00
11329;BME280;5719;42.714;23.732;2023-09-07T05:53:32;94977.16;;;20.01;100.00
11329;BME280;5719;42.714;23.732;2023-09-07T05:55:59;94969.94;;;19.95;100.00
11329;BME280;5719;42.714;23.732;2023-09-07T05:58:27;94979.16;;;19.99;100.00
11329;BME280;5719;42.714;23.732;2023-09-07T06:00:54;94976.09;;;20.12;100.00
11329;BME280;5719;42.714;23.732;2023-09-07T06:03:21;94978.09;;;20.18;100.00
11329;BME280;5719;42.714;23.732;2023-09-07T06:05:48;94975.81;;;20.23;100.00
11329;BME280;5719;42.714;23.732;2023-09-07T06:08:15;94981.75;;;20.25;100.00
11329;BME280;5719;42.714;23.732;2023-09-07T06:10:42;94976.03;;;20.29;100.00
11329;BME280;5719;42.714;23.732;2023-09-07T06:13:09;94986.75;;;20.36;99.98
11329;BME280;5719;42.714;23.732;2023-09-07T06:15:37;94983.44;;;20.34;100.00
11329;BME280;5719;42.714;23.732;2023-09-07T06:18:04;94985.81;;;20.45;100.00
11329;BME280;5719;42.714;23.732;2023-09-07T06:20:31;94988.97;;;20.57;100.00
11329;BME280;5719;42.714;23.732;2023-09-07T06:22:58;94984.88;;;20.54;97.04
11329;BME280;5719;42.714;23.732;2023-09-07T06:25:25;94989.34;;;20.62;95.93
11329;BME280;5719;42.714;23.732;2023-09-07T06:27:52;94986.91;;;20.68;96.27
11329;BME280;5719;42.714;23.732;2023-09-07T06:30:19;94996.44;;;20.77;95.75
11329;BME280;5719;42.714;23.732;2023-09-07T06:32:48;94991.06;;;20.87;96.20
11329;BME280;5719;42.714;23.732;2023-09-07T06:35:17;94997.00;;;20.97;96.07
11329;BME280;5719;42.714;23.732;2023-09-07T06:37:45;94995.38;;;21.04;92.13
11329;BME280;5719;42.714;23.732;2023-09-07T06:40:12;94993.44;;;21.14;91.65
11329;BME280;5719;42.714;23.732;2023-09-07T06:42:41;95001.69;;;21.19;89.17
11329;BME280;5719;42.714;23.732;2023-09-07T06:45:08;95001.34;;;21.22;81.32
11329;BME280;5719;42.714;23.732;2023-09-07T06:47:36;94999.72;;;21.29;79.00
11329;BME280;5719;42.714;23.732;2023-09-07T06:50:05;95002.53;;;21.44;79.39
11329;BME280;5719;42.714;23.732;2023-09-07T06:52:32;95001.06;;;21.66;78.82
11329;BME280;5719;42.714;23.732;2023-09-07T06:54:59;95002.38;;;21.78;73.56
11329;BME280;5719;42.714;23.732;2023-09-07T06:57:26;94999.13;;;21.92;73.37
11329;BME280;5719;42.714;23.732;2023-09-07T06:59:53;94981.97;;;21.88;73.80
11329;BME280;5719;42.714;23.732;2023-09-07T07:02:20;94998.59;;;22.05;74.60
11329;BME280;5719;42.714;23.732;2023-09-07T07:04:46;94997.25;;;22.09;72.46
11329;BME280;5719;42.714;23.732;2023-09-07T07:07:15;94995.44;;;22.17;72.83
11329;BME280;5719;42.714;23.732;2023-09-07T07:09:45;94994.75;;;22.31;71.40
11329;BME280;5719;42.714;23.732;2023-09-07T07:12:12;94998.50;;;22.45;72.15
11329;BME280;5719;42.714;23.732;2023-09-07T07:14:39;94994.03;;;22.54;71.25
11329;BME280;5719;42.714;23.732;2023-09-07T07:17:06;94989.72;;;22.69;69.55
11329;BME280;5719;42.714;23.732;2023-09-07T07:19:33;94993.47;;;22.66;69.94
11329;BME280;5719;42.714;23.732;2023-09-07T07:21:59;94997.28;;;22.64;69.58
11329;BME280;5719;42.714;23.732;2023-09-07T07:24:28;94997.28;;;22.72;70.01
11329;BME280;5719;42.714;23.732;2023-09-07T07:26:55;94995.44;;;22.80;68.96
11329;BME280;5719;42.714;23.732;2023-09-07T07:29:22;95001.47;;;22.89;70.33
11329;BME280;5719;42.714;23.732;2023-09-07T07:31:49;95002.16;;;22.91;68.54
11329;BME280;5719;42.714;23.732;2023-09-07T07:34:16;94994.16;;;22.99;66.52
11329;BME280;5719;42.714;23.732;2023-09-07T07:36:43;94997.28;;;23.03;66.96
11329;BME280;5719;42.714;23.732;2023-09-07T07:39:09;95009.34;;;22.97;67.98
11329;BME280;5719;42.714;23.732;2023-09-07T07:41:38;95004.41;;;23.02;67.06
11329;BME280;5719;42.714;23.732;2023-09-07T07:44:05;95005.47;;;23.16;65.21
11329;BME280;5719;42.714;23.732;2023-09-07T07:46:32;95001.44;;;23.28;65.54
11329;BME280;5719;42.714;23.732;2023-09-07T07:48:59;95002.56;;;23.33;64.96
11329;BME280;5719;42.714;23.732;2023-09-07T07:51:26;95006.28;;;23.39;65.62
11329;BME280;5719;42.714;23.732;2023-09-07T07:53:54;95000.13;;;23.55;64.36
11329;BME280;5719;42.714;23.732;2023-09-07T07:56:24;94999.00;;;23.72;63.28
11329;BME280;5719;42.714;23.732;2023-09-07T07:58:52;95010.66;;;24.00;62.85
11329;BME280;5719;42.714;23.732;2023-09-07T08:01:20;95012.91;;;24.26;62.11
11329;BME280;5719;42.714;23.732;2023-09-07T08:03:47;95010.47;;;24.54;62.50
11329;BME280;5719;42.714;23.732;2023-09-07T08:06:14;95003.28;;;24.77;60.03
11329;BME280;5719;42.714;23.732;2023-09-07T08:08:42;95003.16;;;25.00;59.12
11329;BME280;5719;42.714;23.732;2023-09-07T08:11:09;95002.84;;;25.24;56.92
11329;BME280;5719;42.714;23.732;2023-09-07T08:13:36;94994.97;;;25.30;55.65
11329;BME280;5719;42.714;23.732;2023-09-07T08:16:05;94999.88;;;25.33;57.89
11329;BME280;5719;42.714;23.732;2023-09-07T08:18:33;94988.25;;;25.49;55.89
11329;BME280;5719;42.714;23.732;2023-09-07T08:21:00;94998.94;;;25.56;54.20
11329;BME280;5719;42.714;23.732;2023-09-07T08:23:28;94997.78;;;25.65;53.92
11329;BME280;5719;42.714;23.732;2023-09-07T08:25:54;94993.44;;;25.78;54.21
11329;BME280;5719;42.714;23.732;2023-09-07T08:28:21;94991.03;;;25.83;53.14
11329;BME280;5719;42.714;23.732;2023-09-07T08:30:49;94995.88;;;25.80;52.50
11329;BME280;5719;42.714;23.732;2023-09-07T08:33:20;94997.16;;;25.84;52.13
11329;BME280;5719;42.714;23.732;2023-09-07T08:35:55;95001.69;;;25.90;52.82
11329;BME280;5719;42.714;23.732;2023-09-07T08:38:23;94989.84;;;25.86;52.44
11329;BME280;5719;42.714;23.732;2023-09-07T08:40:54;94995.63;;;25.96;52.27
11329;BME280;5719;42.714;23.732;2023-09-07T08:43:21;94992.94;;;25.90;52.81
11329;BME280;5719;42.714;23.732;2023-09-07T08:45:51;94994.81;;;25.96;52.37
11329;BME280;5719;42.714;23.732;2023-09-07T08:48:27;94990.72;;;25.93;48.71
11329;BME280;5719;42.714;23.732;2023-09-07T08:50:56;94980.63;;;26.10;49.40
11329;BME280;5719;42.714;23.732;2023-09-07T08:53:23;94987.09;;;26.01;50.04
11329;BME280;5719;42.714;23.732;2023-09-07T08:55:51;94981.28;;;26.40;51.20
11329;BME280;5719;42.714;23.732;2023-09-07T08:58:18;94967.56;;;26.70;52.33
11329;BME280;5719;42.714;23.732;2023-09-07T09:00:45;94981.56;;;26.86;49.61
11329;BME280;5719;42.714;23.732;2023-09-07T09:03:12;94974.28;;;27.07;49.54
11329;BME280;5719;42.714;23.732;2023-09-07T09:05:41;94981.28;;;27.21;48.98
11329;BME280;5719;42.714;23.732;2023-09-07T09:08:09;94973.56;;;27.40;47.30
11329;BME280;5719;42.714;23.732;2023-09-07T09:10:38;94972.81;;;27.59;46.00
11329;BME280;5719;42.714;23.732;2023-09-07T09:13:06;94976.50;;;27.58;45.83
11329;BME280;5719;42.714;23.732;2023-09-07T09:15:33;94980.28;;;27.22;46.72
11329;BME280;5719;42.714;23.732;2023-09-07T09:18:09;94971.28;;;27.10;47.27
11329;BME280;5719;42.714;23.732;2023-09-07T09:20:37;94978.78;;;27.07;47.15
11329;BME280;5719;42.714;23.732;2023-09-07T09:23:06;94974.63;;;26.85;48.42
11329;BME280;5719;42.714;23.732;2023-09-07T09:25:33;94968.50;;;26.84;47.35
11329;BME280;5719;42.714;23.732;2023-09-07T09:28:00;94959.44;;;26.78;49.16
11329;BME280;5719;42.714;23.732;2023-09-07T09:30:27;94968.78;;;26.68;49.99
11329;BME280;5719;42.714;23.732;2023-09-07T09:32:54;94966.41;;;26.79;51.40
11329;BME280;5719;42.714;23.732;2023-09-07T09:35:21;94966.72;;;27.04;48.95
11329;BME280;5719;42.714;23.732;2023-09-07T09:37:50;94960.50;;;27.25;50.02
11329;BME280;5719;42.714;23.732;2023-09-07T09:40:18;94958.00;;;27.17;48.90
11329;BME280;5719;42.714;23.732;2023-09-07T09:42:45;94971.72;;;26.79;49.05
11329;BME280;5719;42.714;23.732;2023-09-07T09:45:12;94967.34;;;26.59;49.52
11329;BME280;5719;42.714;23.732;2023-09-07T09:47:41;94959.81;;;26.69;49.29
11329;BME280;5719;42.714;23.732;2023-09-07T09:50:11;94960.69;;;26.76;49.33
11329;BME280;5719;42.714;23.732;2023-09-07T09:52:38;94948.69;;;26.46;50.12
11329;BME280;5719;42.714;23.732;2023-09-07T09:55:06;94959.72;;;26.49;50.86
11329;BME280;5719;42.714;23.732;2023-09-07T09:57:40;94946.66;;;26.48;50.52
11329;BME280;5719;42.714;23.732;2023-09-07T10:00:08;94958.34;;;26.60;51.42
11329;BME280;5719;42.714;23.732;2023-09-07T10:02:55;94951.81;;;26.97;50.27
11329;BME280;5719;42.714;23.732;2023-09-07T10:05:26;94952.06;;;27.08;49.34
11329;BME280;5719;42.714;23.732;2023-09-07T10:08:00;94957.19;;;26.75;49.72
11329;BME280;5719;42.714;23.732;2023-09-07T10:10:33;94949.38;;;26.95;49.63
11329;BME280;5719;42.714;23.732;2023-09-07T10:13:03;94942.50;;;27.20;48.96
11329;BME280;5719;42.714;23.732;2023-09-07T10:15:31;94943.69;;;27.11;48.19
11329;BME280;5719;42.714;23.732;2023-09-07T10:18:09;94949.06;;;27.31;50.41
11329;BME280;5719;42.714;23.732;2023-09-07T10:20:54;94940.03;;;27.25;49.65
11329;BME280;5719;42.714;23.732;2023-09-07T10:23:22;94948.56;;;27.01;48.59
11329;BME280;5719;42.714;23.732;2023-09-07T10:25:50;94951.03;;;26.68;49.19
11329;BME280;5719;42.714;23.732;2023-09-07T10:28:20;94951.13;;;26.41;50.04
11329;BME280;5719;42.714;23.732;2023-09-07T10:31:01;94952.53;;;26.37;50.64
11329;BME280;5719;42.714;23.732;2023-09-07T10:33:30;94950.47;;;26.39;50.61
11329;BME280;5719;42.714;23.732;2023-09-07T10:35:57;94957.81;;;26.37;51.29
11329;BME280;5719;42.714;23.732;2023-09-07T10:38:24;94963.34;;;26.42;51.26
11329;BME280;5719;42.714;23.732;2023-09-07T10:40:55;94951.63;;;26.64;50.66
11329;BME280;5719;42.714;23.732;2023-09-07T10:43:27;94963.88;;;26.65;50.78
11329;BME280;5719;42.714;23.732;2023-09-07T10:45:54;94945.47;;;26.57;49.53
11329;BME280;5719;42.714;23.732;2023-09-07T10:48:21;94962.19;;;26.51;49.87
11329;BME280;5719;42.714;23.732;2023-09-07T10:50:48;94943.78;;;26.43;50.06
11329;BME280;5719;42.714;23.732;2023-09-07T10:53:25;94960.06;;;26.40;49.68
11329;BME280;5719;42.714;23.732;2023-09-07T10:55:53;94957.34;;;26.26;50.46
11329;BME280;5719;42.714;23.732;2023-09-07T10:58:27;94951.28;;;26.05;50.64
11329;BME280;5719;42.714;23.732;2023-09-07T11:00:54;94968.91;;;25.98;51.27
11329;BME280;5719;42.714;23.732;2023-09-07T11:03:21;94954.44;;;25.94;50.58
11329;BME280;5719;42.714;23.732;2023-09-07T11:05:48;94955.75;;;26.04;51.41
11329;BME280;5719;42.714;23.732;2023-09-07T11:08:18;94951.41;;;26.24;51.23
11329;BME280;5719;42.714;23.732;2023-09-07T11:10:45;94950.19;;;26.61;50.27
11329;BME280;5719;42.714;23.732;2023-09-07T11:13:12;94946.50;;;27.03;48.98
11329;BME280;5719;42.714;23.732;2023-09-07T11:15:42;94942.78;;;27.52;48.46
11329;BME280;5719;42.714;23.732;2023-09-07T11:18:09;94934.44;;;27.68;46.10
11329;BME280;5719;42.714;23.732;2023-09-07T11:20:36;94945.66;;;27.96;47.11
11329;BME280;5719;42.714;23.732;2023-09-07T11:23:06;94938.75;;;28.08;46.69
11329;BME280;5719;42.714;23.732;2023-09-07T11:25:35;94947.50;;;28.02;45.51
11329;BME280;5719;42.714;23.732;2023-09-07T11:28:03;94936.84;;;27.76;44.81
11329;BME280;5719;42.714;23.732;2023-09-07T11:30:31;94937.84;;;27.42;46.18
11329;BME280;5719;42.714;23.732;2023-09-07T11:33:04;94940.19;;;26.98;46.72
11329;BME280;5719;42.714;23.732;2023-09-07T11:35:32;94938.28;;;26.85;47.04
11329;BME280;5719;42.714;23.732;2023-09-07T11:37:59;94943.13;;;26.75;47.25
11329;BME280;5719;42.714;23.732;2023-09-07T11:40:27;94933.47;;;26.61;47.83
11329;BME280;5719;42.714;23.732;2023-09-07T11:42:54;94939.66;;;26.33;48.25
11329;BME280;5719;42.714;23.732;2023-09-07T11:45:21;94923.31;;;26.30;49.88
11329;BME280;5719;42.714;23.732;2023-09-07T11:47:48;94930.53;;;26.15;49.47
11329;BME280;5719;42.714;23.732;2023-09-07T11:50:18;94932.91;;;26.03;49.19
11329;BME280;5719;42.714;23.732;2023-09-07T11:52:46;94926.44;;;25.84;50.49
11329;BME280;5719;42.714;23.732;2023-09-07T11:55:13;94932.22;;;25.67;50.13
11329;BME280;5719;42.714;23.732;2023-09-07T11:57:41;94919.66;;;25.54;50.64
11329;BME280;5719;42.714;23.732;2023-09-07T12:00:08;94919.09;;;25.37;51.02
11329;BME280;5719;42.714;23.732;2023-09-07T12:02:37;94919.22;;;25.29;51.41
11329;BME280;5719;42.714;23.732;2023-09-07T12:05:05;94909.38;;;25.23;51.71
11329;BME280;5719;42.714;23.732;2023-09-07T12:07:35;94907.19;;;25.27;51.26
11329;BME280;5719;42.714;23.732;2023-09-07T12:10:02;94913.91;;;25.29;52.59
11329;BME280;5719;42.714;23.732;2023-09-07T12:12:29;94905.25;;;25.35;51.62
11329;BME280;5719;42.714;23.732;2023-09-07T12:14:56;94906.63;;;25.31;52.10
11329;BME280;5719;42.714;23.732;2023-09-07T12:17:23;94898.16;;;25.43;52.73
11329;BME280;5719;42.714;23.732;2023-09-07T12:19:50;94904.59;;;25.55;51.32
11329;BME280;5719;42.714;23.732;2023-09-07T12:22:18;94895.13;;;25.67;51.80
11329;BME280;5719;42.714;23.732;2023-09-07T12:24:46;94889.44;;;25.70;51.05
11329;BME280;5719;42.714;23.732;2023-09-07T12:27:13;94908.31;;;25.88;51.00
11329;BME280;5719;42.714;23.732;2023-09-07T12:29:40;94899.38;;;25.89;49.27
11329;BME280;5719;42.714;23.732;2023-09-07T12:32:07;94898.72;;;25.87;49.56
11329;BME280;5719;42.714;23.732;2023-09-07T12:34:34;94894.91;;;25.90;49.89
11329;BME280;5719;42.714;23.732;2023-09-07T12:37:02;94897.66;;;25.75;49.64
11329;BME280;5719;42.714;23.732;2023-09-07T12:39:30;94900.81;;;25.64;49.92
11329;BME280;5719;42.714;23.732;2023-09-07T12:41:58;94896.88;;;25.53;50.12
11329;BME280;5719;42.714;23.732;2023-09-07T12:44:25;94904.69;;;25.47;50.78
11329;BME280;5719;42.714;23.732;2023-09-07T12:46:52;94902.44;;;25.44;51.56
11329;BME280;5719;42.714;23.732;2023-09-07T12:49:19;94898.47;;;25.33;52.18
11329;BME280;5719;42.714;23.732;2023-09-07T12:51:46;94909.06;;;25.33;51.19
11329;BME280;5719;42.714;23.732;2023-09-07T12:54:13;94912.41;;;25.20;51.63
11329;BME280;5719;42.714;23.732;2023-09-07T12:56:40;94911.72;;;25.12;51.79
11329;BME280;5719;42.714;23.732;2023-09-07T12:59:09;94915.63;;;25.16;51.33
11329;BME280;5719;42.714;23.732;2023-09-07T13:01:36;94915.19;;;25.12;50.98